This is the latest recevied weather packets stored in our database for station/object KI4FRU. If no packets are shown the sender has not sent any weather packets the latest 10 day(s).
| Time | Temp. | Humidity | Pressure | Rain* | Wind** | Luminosity | Snow |
|---|---|---|---|---|---|---|---|
| 1777240777 | 21.67° C | 78% | 1054.3 hPa | 0 mm | - | 66 W/m² | - |
| 1777240475 | 21.67° C | 79% | 1054.2 hPa | 0 mm | - | 68 W/m² | - |
| 1777240172 | 21.67° C | 78% | 1054.3 hPa | 0 mm | - | 86 W/m² | - |
| 1777239870 | 21.67° C | 78% | 1054.1 hPa | 0 mm | - | 124 W/m² | - |
| 1777239567 | 22.22° C | 77% | 1054 hPa | 0 mm | - | 108 W/m² | - |
| 1777239263 | 22.22° C | 76% | 1054 hPa | 0 mm | - | 92 W/m² | - |
| 1777238961 | 22.22° C | 76% | 1053.8 hPa | 0 mm | - | 104 W/m² | - |
| 1777238657 | 22.22° C | 75% | 1053.8 hPa | 0 mm | - | 125 W/m² | - |
| 1777238354 | 23.33° C | 73% | 1053.8 hPa | 0 mm | - | 137 W/m² | - |
| 1777238051 | 24.44° C | 68% | 1053.4 hPa | 0 mm | - | 215 W/m² | - |
| 1777237747 | 23.33° C | 73% | 1053.4 hPa | 0 mm | - | 79 W/m² | - |
| 1777237445 | 22.78° C | 74% | 1053.6 hPa | 0 mm | - | 241 W/m² | - |
| 1777237142 | 23.89° C | 72% | 1053.3 hPa | 0 mm | - | 135 W/m² | - |
| 1777236839 | 23.89° C | 70% | 1053.4 hPa | 0 mm | - | 241 W/m² | - |
| 1777236539 | 23.33° C | 74% | 1053.4 hPa | 0 mm | - | 243 W/m² | - |
| 1777236235 | 24.44° C | 69% | 1053.3 hPa | 0 mm | - | 194 W/m² | - |
| 1777235931 | 25° C | 68% | 1053.2 hPa | 0 mm | - | 152 W/m² | - |
| 1777235628 | 25° C | 66% | 1053 hPa | 0 mm | - | 513 W/m² | - |
| 1777235325 | 25° C | 65% | 1053.1 hPa | 0 mm | - | 510 W/m² | - |
| 1777235021 | 25° C | 64% | 1053.2 hPa | 0 mm | - | 521 W/m² | - |
| 1777234717 | 25° C | 65% | 1053.2 hPa | 0 mm | - | 520 W/m² | - |
| 1777234413 | 27.22° C | 63% | 1053.1 hPa | 0 mm | - | 128 W/m² | - |
| 1777234108 | 25° C | 70% | 1053.2 hPa | 0 mm | - | 565 W/m² | - |
| 1777233804 | 25.56° C | 68% | 1052.9 hPa | 0 mm | - | 276 W/m² | - |
| 1777233501 | 23.33° C | 69% | 1053.1 hPa | 0 mm | - | 566 W/m² | - |
* Rain latest hour (hover to see other rain measurements)
** Current wind speed in m/s (hover to see current wind gust speed)